sensor_id;sensor_type;location;lat;lon;timestamp;temperature;humidity
7212;DHT22;3647;48.792;9.802;2023-04-29T06:08:04;12.70;99.90
7212;DHT22;3647;48.792;9.802;2023-04-29T06:10:31;11.80;99.90
7212;DHT22;3647;48.792;9.802;2023-04-29T06:12:59;13.10;99.90
7212;DHT22;3647;48.792;9.802;2023-04-29T06:15:25;13.40;99.90
7212;DHT22;3647;48.792;9.802;2023-04-29T06:17:52;13.60;99.90
7212;DHT22;3647;48.792;9.802;2023-04-29T06:20:19;14.90;99.90
7212;DHT22;3647;48.792;9.802;2023-04-29T06:22:46;14.00;99.90
7212;DHT22;3647;48.792;9.802;2023-04-29T06:25:15;14.40;99.90
7212;DHT22;3647;48.792;9.802;2023-04-29T06:27:42;14.50;99.90
7212;DHT22;3647;48.792;9.802;2023-04-29T06:30:09;14.50;99.90
7212;DHT22;3647;48.792;9.802;2023-04-29T06:32:36;14.50;99.90
7212;DHT22;3647;48.792;9.802;2023-04-29T06:35:03;14.40;99.90
7212;DHT22;3647;48.792;9.802;2023-04-29T06:37:30;14.80;99.90
7212;DHT22;3647;48.792;9.802;2023-04-29T06:40:00;14.80;99.90
7212;DHT22;3647;48.792;9.802;2023-04-29T06:42:29;14.80;99.90
7212;DHT22;3647;48.792;9.802;2023-04-29T06:44:55;15.80;99.90
7212;DHT22;3647;48.792;9.802;2023-04-29T06:47:22;15.00;99.90
7212;DHT22;3647;48.792;9.802;2023-04-29T06:49:49;15.10;99.90
7212;DHT22;3647;48.792;9.802;2023-04-29T06:52:17;15.10;99.90
7212;DHT22;3647;48.792;9.802;2023-04-29T06:54:44;15.10;99.90
7212;DHT22;3647;48.792;9.802;2023-04-29T06:57:11;15.10;99.90
7212;DHT22;3647;48.792;9.802;2023-04-29T06:59:39;15.00;99.90
7212;DHT22;3647;48.792;9.802;2023-04-29T07:02:06;14.90;99.90
7212;DHT22;3647;48.792;9.802;2023-04-29T07:04:33;14.70;99.90
7212;DHT22;3647;48.792;9.802;2023-04-29T07:07:01;14.60;99.90
7212;DHT22;3647;48.792;9.802;2023-04-29T07:09:29;14.90;99.90
7212;DHT22;3647;48.792;9.802;2023-04-29T07:11:55;15.00;99.90
7212;DHT22;3647;48.792;9.802;2023-04-29T07:14:22;15.00;99.90
7212;DHT22;3647;48.792;9.802;2023-04-29T07:16:53;15.00;99.90
7212;DHT22;3647;48.792;9.802;2023-04-29T07:19:20;15.00;99.90
7212;DHT22;3647;48.792;9.802;2023-04-29T07:21:47;15.10;99.90
7212;DHT22;3647;48.792;9.802;2023-04-29T07:24:14;15.40;99.90
7212;DHT22;3647;48.792;9.802;2023-04-29T07:26:42;15.50;99.90
7212;DHT22;3647;48.792;9.802;2023-04-29T07:29:09;15.90;99.90
7212;DHT22;3647;48.792;9.802;2023-04-29T07:31:36;16.30;99.90
7212;DHT22;3647;48.792;9.802;2023-04-29T07:34:04;16.40;99.90
7212;DHT22;3647;48.792;9.802;2023-04-29T07:36:31;16.50;99.90
7212;DHT22;3647;48.792;9.802;2023-04-29T07:38:58;16.60;99.90
7212;DHT22;3647;48.792;9.802;2023-04-29T07:41:25;16.90;99.90
7212;DHT22;3647;48.792;9.802;2023-04-29T07:43:52;17.20;99.90
7212;DHT22;3647;48.792;9.802;2023-04-29T07:46:19;17.40;99.90
7212;DHT22;3647;48.792;9.802;2023-04-29T07:48:46;17.30;99.90
7212;DHT22;3647;48.792;9.802;2023-04-29T07:51:14;17.90;99.90
7212;DHT22;3647;48.792;9.802;2023-04-29T07:53:41;17.60;99.90
7212;DHT22;3647;48.792;9.802;2023-04-29T07:56:08;17.90;99.90
7212;DHT22;3647;48.792;9.802;2023-04-29T07:58:35;18.40;99.90
7212;DHT22;3647;48.792;9.802;2023-04-29T08:01:06;18.40;99.90
7212;DHT22;3647;48.792;9.802;2023-04-29T08:03:34;18.40;99.90
7212;DHT22;3647;48.792;9.802;2023-04-29T08:06:05;17.60;99.90
7212;DHT22;3647;48.792;9.802;2023-04-29T08:08:33;17.30;99.90
7212;DHT22;3647;48.792;9.802;2023-04-29T08:11:00;17.00;99.90
7212;DHT22;3647;48.792;9.802;2023-04-29T08:13:27;16.90;99.90
7212;DHT22;3647;48.792;9.802;2023-04-29T08:15:53;16.70;99.90
7212;DHT22;3647;48.792;9.802;2023-04-29T08:18:20;16.60;99.90
7212;DHT22;3647;48.792;9.802;2023-04-29T08:20:47;16.50;99.90
7212;DHT22;3647;48.792;9.802;2023-04-29T08:23:15;16.40;99.90
7212;DHT22;3647;48.792;9.802;2023-04-29T08:25:44;16.40;99.90
7212;DHT22;3647;48.792;9.802;2023-04-29T08:28:10;16.50;99.90
7212;DHT22;3647;48.792;9.802;2023-04-29T08:30:39;16.50;99.90
7212;DHT22;3647;48.792;9.802;2023-04-29T08:33:06;16.50;99.90
7212;DHT22;3647;48.792;9.802;2023-04-29T08:35:33;16.30;99.90
7212;DHT22;3647;48.792;9.802;2023-04-29T08:38:03;16.50;99.90
7212;DHT22;3647;48.792;9.802;2023-04-29T08:40:33;16.30;99.90
7212;DHT22;3647;48.792;9.802;2023-04-29T08:43:02;16.30;99.90
7212;DHT22;3647;48.792;9.802;2023-04-29T08:45:30;16.20;99.90
7212;DHT22;3647;48.792;9.802;2023-04-29T08:48:00;16.30;99.90
7212;DHT22;3647;48.792;9.802;2023-04-29T08:50:29;16.30;99.90
7212;DHT22;3647;48.792;9.802;2023-04-29T08:52:56;16.50;99.90
7212;DHT22;3647;48.792;9.802;2023-04-29T08:55:23;16.30;99.90
7212;DHT22;3647;48.792;9.802;2023-04-29T08:57:53;15.90;99.90
7212;DHT22;3647;48.792;9.802;2023-04-29T09:00:23;15.70;99.90
7212;DHT22;3647;48.792;9.802;2023-04-29T09:02:51;15.60;99.90
7212;DHT22;3647;48.792;9.802;2023-04-29T09:05:19;15.70;99.90
7212;DHT22;3647;48.792;9.802;2023-04-29T09:07:46;16.00;99.90
7212;DHT22;3647;48.792;9.802;2023-04-29T09:10:13;15.60;99.90
7212;DHT22;3647;48.792;9.802;2023-04-29T09:12:41;15.60;99.90
7212;DHT22;3647;48.792;9.802;2023-04-29T09:15:09;15.50;99.90
7212;DHT22;3647;48.792;9.802;2023-04-29T09:17:42;15.70;99.90
7212;DHT22;3647;48.792;9.802;2023-04-29T09:20:26;15.90;99.90
7212;DHT22;3647;48.792;9.802;2023-04-29T09:22:54;15.60;99.90
7212;DHT22;3647;48.792;9.802;2023-04-29T09:25:21;16.00;99.90
7212;DHT22;3647;48.792;9.802;2023-04-29T09:27:48;16.30;99.90
7212;DHT22;3647;48.792;9.802;2023-04-29T09:30:15;16.40;99.90
7212;DHT22;3647;48.792;9.802;2023-04-29T09:33:03;16.40;99.90
7212;DHT22;3647;48.792;9.802;2023-04-29T09:35:30;16.80;99.90
7212;DHT22;3647;48.792;9.802;2023-04-29T09:38:08;16.40;99.90
7212;DHT22;3647;48.792;9.802;2023-04-29T09:40:35;16.40;99.90
7212;DHT22;3647;48.792;9.802;2023-04-29T09:43:02;16.40;99.90
7212;DHT22;3647;48.792;9.802;2023-04-29T09:45:33;16.50;99.90
7212;DHT22;3647;48.792;9.802;2023-04-29T09:48:03;16.60;99.90
7212;DHT22;3647;48.792;9.802;2023-04-29T09:50:31;16.70;99.90
7212;DHT22;3647;48.792;9.802;2023-04-29T09:52:58;16.70;99.90
7212;DHT22;3647;48.792;9.802;2023-04-29T09:55:25;16.90;99.90
7212;DHT22;3647;48.792;9.802;2023-04-29T09:57:52;17.00;99.90
7212;DHT22;3647;48.792;9.802;2023-04-29T10:00:19;17.00;99.90
7212;DHT22;3647;48.792;9.802;2023-04-29T10:02:47;17.00;99.90
7212;DHT22;3647;48.792;9.802;2023-04-29T10:05:16;16.80;99.90
7212;DHT22;3647;48.792;9.802;2023-04-29T10:07:45;16.80;99.90
7212;DHT22;3647;48.792;9.802;2023-04-29T10:10:14;16.70;99.90
7212;DHT22;3647;48.792;9.802;2023-04-29T10:12:41;16.60;99.90
7212;DHT22;3647;48.792;9.802;2023-04-29T10:15:21;16.50;99.90
7212;DHT22;3647;48.792;9.802;2023-04-29T10:17:54;16.60;99.90
7212;DHT22;3647;48.792;9.802;2023-04-29T10:20:25;16.90;99.90
7212;DHT22;3647;48.792;9.802;2023-04-29T10:22:53;16.60;99.90
7212;DHT22;3647;48.792;9.802;2023-04-29T10:25:22;17.40;99.90
7212;DHT22;3647;48.792;9.802;2023-04-29T10:27:50;16.60;99.90
7212;DHT22;3647;48.792;9.802;2023-04-29T10:30:18;16.70;99.90
7212;DHT22;3647;48.792;9.802;2023-04-29T10:32:47;16.60;99.90
7212;DHT22;3647;48.792;9.802;2023-04-29T10:35:15;16.80;99.90
7212;DHT22;3647;48.792;9.802;2023-04-29T10:37:46;17.60;99.90
7212;DHT22;3647;48.792;9.802;2023-04-29T10:40:15;17.00;99.90
7212;DHT22;3647;48.792;9.802;2023-04-29T10:42:44;17.00;99.90
7212;DHT22;3647;48.792;9.802;2023-04-29T10:45:29;16.90;99.90
7212;DHT22;3647;48.792;9.802;2023-04-29T10:48:21;16.90;99.90
7212;DHT22;3647;48.792;9.802;2023-04-29T10:51:02;16.50;99.90
7212;DHT22;3647;48.792;9.802;2023-04-29T10:53:31;16.40;99.90
7212;DHT22;3647;48.792;9.802;2023-04-29T10:56:04;16.40;99.90
7212;DHT22;3647;48.792;9.802;2023-04-29T10:58:43;16.20;99.90
7212;DHT22;3647;48.792;9.802;2023-04-29T11:01:11;15.90;99.90
7212;DHT22;3647;48.792;9.802;2023-04-29T11:03:52;15.90;99.90
7212;DHT22;3647;48.792;9.802;2023-04-29T11:06:37;15.90;99.90
7212;DHT22;3647;48.792;9.802;2023-04-29T11:09:09;16.20;99.90
7212;DHT22;3647;48.792;9.802;2023-04-29T11:12:02;16.30;99.90
7212;DHT22;3647;48.792;9.802;2023-04-29T11:14:34;14.90;99.90
7212;DHT22;3647;48.792;9.802;2023-04-29T11:17:07;16.00;99.90
7212;DHT22;3647;48.792;9.802;2023-04-29T11:19:38;16.20;99.90
7212;DHT22;3647;48.792;9.802;2023-04-29T11:22:12;16.10;99.90
7212;DHT22;3647;48.792;9.802;2023-04-29T11:24:52;16.30;99.90
7212;DHT22;3647;48.792;9.802;2023-04-29T11:27:21;16.40;99.90
7212;DHT22;3647;48.792;9.802;2023-04-29T11:29:50;16.70;99.90
7212;DHT22;3647;48.792;9.802;2023-04-29T11:32:20;16.50;99.90
7212;DHT22;3647;48.792;9.802;2023-04-29T11:34:47;16.70;99.90
7212;DHT22;3647;48.792;9.802;2023-04-29T11:37:19;16.30;99.90
7212;DHT22;3647;48.792;9.802;2023-04-29T11:39:47;16.20;99.90
7212;DHT22;3647;48.792;9.802;2023-04-29T11:42:20;16.20;99.90
7212;DHT22;3647;48.792;9.802;2023-04-29T11:44:50;16.40;99.90
7212;DHT22;3647;48.792;9.802;2023-04-29T11:47:18;16.80;99.90
7212;DHT22;3647;48.792;9.802;2023-04-29T11:49:45;17.20;99.90
7212;DHT22;3647;48.792;9.802;2023-04-29T11:52:12;16.90;99.90
7212;DHT22;3647;48.792;9.802;2023-04-29T11:54:40;17.20;99.90
7212;DHT22;3647;48.792;9.802;2023-04-29T11:57:09;17.20;99.90
7212;DHT22;3647;48.792;9.802;2023-04-29T11:59:37;17.20;99.90
7212;DHT22;3647;48.792;9.802;2023-04-29T12:02:10;16.60;99.90
7212;DHT22;3647;48.792;9.802;2023-04-29T12:04:44;16.90;99.90
7212;DHT22;3647;48.792;9.802;2023-04-29T12:07:13;17.00;99.90
7212;DHT22;3647;48.792;9.802;2023-04-29T12:09:43;17.10;99.90
7212;DHT22;3647;48.792;9.802;2023-04-29T12:12:12;16.80;99.90
7212;DHT22;3647;48.792;9.802;2023-04-29T12:14:40;16.60;99.90
7212;DHT22;3647;48.792;9.802;2023-04-29T12:17:08;16.70;99.90
7212;DHT22;3647;48.792;9.802;2023-04-29T12:19:36;16.60;99.90
7212;DHT22;3647;48.792;9.802;2023-04-29T12:22:06;16.60;99.90
7212;DHT22;3647;48.792;9.802;2023-04-29T12:24:33;19.10;99.90
7212;DHT22;3647;48.792;9.802;2023-04-29T12:27:01;16.30;99.90
7212;DHT22;3647;48.792;9.802;2023-04-29T12:29:28;16.40;99.90
7212;DHT22;3647;48.792;9.802;2023-04-29T12:31:56;16.40;99.90
7212;DHT22;3647;48.792;9.802;2023-04-29T12:34:27;16.30;99.90
7212;DHT22;3647;48.792;9.802;2023-04-29T12:36:55;16.50;99.90
7212;DHT22;3647;48.792;9.802;2023-04-29T12:39:23;16.50;99.90
7212;DHT22;3647;48.792;9.802;2023-04-29T12:41:54;16.60;99.90
7212;DHT22;3647;48.792;9.802;2023-04-29T12:44:22;16.80;99.90
7212;DHT22;3647;48.792;9.802;2023-04-29T12:46:49;17.10;99.90
7212;DHT22;3647;48.792;9.802;2023-04-29T12:49:18;17.20;99.90
7212;DHT22;3647;48.792;9.802;2023-04-29T12:51:46;17.70;99.90
7212;DHT22;3647;48.792;9.802;2023-04-29T12:54:13;19.60;99.90
7212;DHT22;3647;48.792;9.802;2023-04-29T12:56:39;17.50;99.90
7212;DHT22;3647;48.792;9.802;2023-04-29T12:59:07;19.70;99.90
7212;DHT22;3647;48.792;9.802;2023-04-29T13:01:34;17.60;99.90
7212;DHT22;3647;48.792;9.802;2023-04-29T13:04:01;17.40;99.90
7212;DHT22;3647;48.792;9.802;2023-04-29T13:06:30;17.60;99.90
7212;DHT22;3647;48.792;9.802;2023-04-29T13:08:57;17.60;99.90
7212;DHT22;3647;48.792;9.802;2023-04-29T13:11:24;17.50;99.90
7212;DHT22;3647;48.792;9.802;2023-04-29T13:13:51;17.00;99.90
7212;DHT22;3647;48.792;9.802;2023-04-29T13:16:18;17.00;99.90
7212;DHT22;3647;48.792;9.802;2023-04-29T13:18:45;16.60;99.90
7212;DHT22;3647;48.792;9.802;2023-04-29T13:21:12;19.00;99.90
7212;DHT22;3647;48.792;9.802;2023-04-29T13:23:40;16.80;99.90
7212;DHT22;3647;48.792;9.802;2023-04-29T13:26:07;17.00;99.90
7212;DHT22;3647;48.792;9.802;2023-04-29T13:28:34;16.90;99.90
7212;DHT22;3647;48.792;9.802;2023-04-29T13:31:01;16.90;99.90
7212;DHT22;3647;48.792;9.802;2023-04-29T13:33:28;17.00;99.90
7212;DHT22;3647;48.792;9.802;2023-04-29T13:35:54;17.00;99.90
7212;DHT22;3647;48.792;9.802;2023-04-29T13:38:21;16.50;99.90
7212;DHT22;3647;48.792;9.802;2023-04-29T13:40:50;16.90;99.90
7212;DHT22;3647;48.792;9.802;2023-04-29T13:43:17;17.20;99.90
7212;DHT22;3647;48.792;9.802;2023-04-29T13:45:44;17.50;99.90
7212;DHT22;3647;48.792;9.802;2023-04-29T13:48:10;17.60;99.90
7212;DHT22;3647;48.792;9.802;2023-04-29T13:50:37;17.80;99.90
7212;DHT22;3647;48.792;9.802;2023-04-29T13:53:05;18.60;99.90
7212;DHT22;3647;48.792;9.802;2023-04-29T13:55:33;17.00;99.90
7212;DHT22;3647;48.792;9.802;2023-04-29T13:58:01;17.10;99.90
7212;DHT22;3647;48.792;9.802;2023-04-29T14:00:28;17.10;99.90
7212;DHT22;3647;48.792;9.802;2023-04-29T14:02:55;17.50;99.90
7212;DHT22;3647;48.792;9.802;2023-04-29T14:05:22;16.40;99.90
7212;DHT22;3647;48.792;9.802;2023-04-29T14:07:48;17.10;99.90
7212;DHT22;3647;48.792;9.802;2023-04-29T14:10:16;17.00;99.90
7212;DHT22;3647;48.792;9.802;2023-04-29T14:12:43;17.20;99.90
7212;DHT22;3647;48.792;9.802;2023-04-29T14:15:11;17.30;99.90
7212;DHT22;3647;48.792;9.802;2023-04-29T14:17:39;17.60;99.90
7212;DHT22;3647;48.792;9.802;2023-04-29T14:20:07;16.00;99.90
7212;DHT22;3647;48.792;9.802;2023-04-29T14:22:34;17.00;99.90
7212;DHT22;3647;48.792;9.802;2023-04-29T14:25:01;17.10;99.90
7212;DHT22;3647;48.792;9.802;2023-04-29T14:27:28;17.40;99.90
7212;DHT22;3647;48.792;9.802;2023-04-29T14:29:54;17.40;99.90
7212;DHT22;3647;48.792;9.802;2023-04-29T14:32:23;16.70;99.90
7212;DHT22;3647;48.792;9.802;2023-04-29T14:34:49;16.90;99.90
7212;DHT22;3647;48.792;9.802;2023-04-29T14:37:16;17.00;99.90
7212;DHT22;3647;48.792;9.802;2023-04-29T14:39:43;17.10;99.90
7212;DHT22;3647;48.792;9.802;2023-04-29T14:42:10;16.90;99.90
7212;DHT22;3647;48.792;9.802;2023-04-29T14:44:37;16.80;99.90
7212;DHT22;3647;48.792;9.802;2023-04-29T14:47:06;16.50;99.90
7212;DHT22;3647;48.792;9.802;2023-04-29T14:49:34;18.80;99.90
7212;DHT22;3647;48.792;9.802;2023-04-29T14:52:01;16.60;99.90
7212;DHT22;3647;48.792;9.802;2023-04-29T14:54:29;16.80;99.90
7212;DHT22;3647;48.792;9.802;2023-04-29T14:56:56;17.40;99.90
7212;DHT22;3647;48.792;9.802;2023-04-29T14:59:22;16.80;99.90
7212;DHT22;3647;48.792;9.802;2023-04-29T15:01:49;16.60;99.90
7212;DHT22;3647;48.792;9.802;2023-04-29T15:04:16;16.80;99.90
7212;DHT22;3647;48.792;9.802;2023-04-29T15:06:44;16.80;99.90
7212;DHT22;3647;48.792;9.802;2023-04-29T15:09:11;16.90;99.90
7212;DHT22;3647;48.792;9.802;2023-04-29T15:11:38;17.20;99.90
7212;DHT22;3647;48.792;9.802;2023-04-29T15:14:05;17.20;99.90
7212;DHT22;3647;48.792;9.802;2023-04-29T15:16:33;17.00;99.90
7212;DHT22;3647;48.792;9.802;2023-04-29T15:19:00;16.90;99.90
7212;DHT22;3647;48.792;9.802;2023-04-29T15:21:27;17.00;99.90
7212;DHT22;3647;48.792;9.802;2023-04-29T15:23:56;17.00;99.90
7212;DHT22;3647;48.792;9.802;2023-04-29T15:26:22;17.20;99.90
7212;DHT22;3647;48.792;9.802;2023-04-29T15:28:49;17.10;99.90
7212;DHT22;3647;48.792;9.802;2023-04-29T15:31:16;16.90;99.90
7212;DHT22;3647;48.792;9.802;2023-04-29T15:33:43;16.30;99.90
7212;DHT22;3647;48.792;9.802;2023-04-29T15:36:10;16.20;99.90
7212;DHT22;3647;48.792;9.802;2023-04-29T15:38:37;15.80;99.90
7212;DHT22;3647;48.792;9.802;2023-04-29T15:41:05;16.50;99.90
7212;DHT22;3647;48.792;9.802;2023-04-29T15:43:32;15.80;99.90
7212;DHT22;3647;48.792;9.802;2023-04-29T15:46:00;15.80;99.90
7212;DHT22;3647;48.792;9.802;2023-04-29T15:48:27;15.80;99.90
7212;DHT22;3647;48.792;9.802;2023-04-29T15:50:54;15.50;99.90
7212;DHT22;3647;48.792;9.802;2023-04-29T15:53:21;15.60;99.90
7212;DHT22;3647;48.792;9.802;2023-04-29T15:55:48;15.80;99.90
7212;DHT22;3647;48.792;9.802;2023-04-29T15:58:16;15.50;99.90
7212;DHT22;3647;48.792;9.802;2023-04-29T16:00:43;15.30;99.90
7212;DHT22;3647;48.792;9.802;2023-04-29T16:03:10;15.40;99.90
7212;DHT22;3647;48.792;9.802;2023-04-29T16:05:37;15.50;99.90
7212;DHT22;3647;48.792;9.802;2023-04-29T16:08:04;15.10;99.90
7212;DHT22;3647;48.792;9.802;2023-04-29T16:10:31;15.10;99.90
7212;DHT22;3647;48.792;9.802;2023-04-29T16:12:58;15.20;99.90
7212;DHT22;3647;48.792;9.802;2023-04-29T16:15:26;15.10;99.90
7212;DHT22;3647;48.792;9.802;2023-04-29T16:17:53;15.10;99.90
7212;DHT22;3647;48.792;9.802;2023-04-29T16:20:20;15.20;99.90
7212;DHT22;3647;48.792;9.802;2023-04-29T16:22:47;16.10;99.90
7212;DHT22;3647;48.792;9.802;2023-04-29T16:25:14;15.20;99.90
7212;DHT22;3647;48.792;9.802;2023-04-29T16:27:41;15.00;99.90
7212;DHT22;3647;48.792;9.802;2023-04-29T16:30:08;15.00;99.90
7212;DHT22;3647;48.792;9.802;2023-04-29T16:32:37;15.00;99.90
7212;DHT22;3647;48.792;9.802;2023-04-29T16:35:06;14.90;99.90
7212;DHT22;3647;48.792;9.802;2023-04-29T16:37:33;14.60;99.90
7212;DHT22;3647;48.792;9.802;2023-04-29T16:40:00;14.50;99.90
7212;DHT22;3647;48.792;9.802;2023-04-29T16:42:27;14.50;99.90
7212;DHT22;3647;48.792;9.802;2023-04-29T16:44:54;15.20;99.90
7212;DHT22;3647;48.792;9.802;2023-04-29T16:47:21;14.40;99.90
7212;DHT22;3647;48.792;9.802;2023-04-29T16:49:50;14.20;99.90
7212;DHT22;3647;48.792;9.802;2023-04-29T16:52:18;14.40;99.90
7212;DHT22;3647;48.792;9.802;2023-04-29T16:54:45;14.50;99.90
7212;DHT22;3647;48.792;9.802;2023-04-29T16:57:12;14.40;99.90
7212;DHT22;3647;48.792;9.802;2023-04-29T16:59:39;14.40;99.90
7212;DHT22;3647;48.792;9.802;2023-04-29T17:02:05;15.00;99.90
7212;DHT22;3647;48.792;9.802;2023-04-29T17:04:32;14.40;99.90
7212;DHT22;3647;48.792;9.802;2023-04-29T17:07:00;14.40;99.90
7212;DHT22;3647;48.792;9.802;2023-04-29T17:09:28;14.50;99.90
7212;DHT22;3647;48.792;9.802;2023-04-29T17:11:55;14.20;99.90
7212;DHT22;3647;48.792;9.802;2023-04-29T17:14:23;14.30;99.90
7212;DHT22;3647;48.792;9.802;2023-04-29T17:16:49;14.20;99.90
7212;DHT22;3647;48.792;9.802;2023-04-29T17:19:16;14.30;99.90
7212;DHT22;3647;48.792;9.802;2023-04-29T17:21:43;14.30;99.90
7212;DHT22;3647;48.792;9.802;2023-04-29T17:24:12;14.40;99.90
7212;DHT22;3647;48.792;9.802;2023-04-29T17:26:39;14.50;99.90
7212;DHT22;3647;48.792;9.802;2023-04-29T17:29:06;14.40;99.90
7212;DHT22;3647;48.792;9.802;2023-04-29T17:31:33;14.30;99.90
7212;DHT22;3647;48.792;9.802;2023-04-29T17:34:09;16.00;99.90
7212;DHT22;3647;48.792;9.802;2023-04-29T17:36:44;14.30;99.90
7212;DHT22;3647;48.792;9.802;2023-04-29T17:39:13;14.20;99.90
7212;DHT22;3647;48.792;9.802;2023-04-29T17:41:40;14.30;99.90
7212;DHT22;3647;48.792;9.802;2023-04-29T17:44:06;14.20;99.90
7212;DHT22;3647;48.792;9.802;2023-04-29T17:46:34;14.00;99.90
7212;DHT22;3647;48.792;9.802;2023-04-29T17:49:01;13.80;99.90
7212;DHT22;3647;48.792;9.802;2023-04-29T17:51:28;13.90;99.90
7212;DHT22;3647;48.792;9.802;2023-04-29T17:53:57;15.10;99.90
7212;DHT22;3647;48.792;9.802;2023-04-29T17:56:25;13.80;99.90
7212;DHT22;3647;48.792;9.802;2023-04-29T17:58:52;13.80;99.90
7212;DHT22;3647;48.792;9.802;2023-04-29T18:01:19;13.80;99.90
7212;DHT22;3647;48.792;9.802;2023-04-29T18:03:46;13.70;99.90
7212;DHT22;3647;48.792;9.802;2023-04-29T18:06:15;13.70;99.90
7212;DHT22;3647;48.792;9.802;2023-04-29T18:08:42;13.80;99.90
7212;DHT22;3647;48.792;9.802;2023-04-29T18:11:08;13.90;99.90
7212;DHT22;3647;48.792;9.802;2023-04-29T18:13:39;13.90;99.90
7212;DHT22;3647;48.792;9.802;2023-04-29T18:16:06;13.90;99.90
7212;DHT22;3647;48.792;9.802;2023-04-29T18:18:33;13.90;99.90
7212;DHT22;3647;48.792;9.802;2023-04-29T18:21:00;13.90;99.90
7212;DHT22;3647;48.792;9.802;2023-04-29T18:23:27;13.80;99.90
7212;DHT22;3647;48.792;9.802;2023-04-29T18:25:54;13.80;99.90
7212;DHT22;3647;48.792;9.802;2023-04-29T18:28:21;13.70;99.90
7212;DHT22;3647;48.792;9.802;2023-04-29T18:30:49;13.80;99.90
7212;DHT22;3647;48.792;9.802;2023-04-29T18:33:16;13.70;99.90
7212;DHT22;3647;48.792;9.802;2023-04-29T18:35:43;13.70;99.90
7212;DHT22;3647;48.792;9.802;2023-04-29T18:38:10;13.70;99.90
7212;DHT22;3647;48.792;9.802;2023-04-29T18:40:40;13.70;99.90
7212;DHT22;3647;48.792;9.802;2023-04-29T18:43:07;13.60;99.90
7212;DHT22;3647;48.792;9.802;2023-04-29T18:45:34;13.60;99.90
7212;DHT22;3647;48.792;9.802;2023-04-29T18:48:02;13.70;99.90
7212;DHT22;3647;48.792;9.802;2023-04-29T18:50:31;13.60;99.90
7212;DHT22;3647;48.792;9.802;2023-04-29T18:52:58;13.70;99.90
7212;DHT22;3647;48.792;9.802;2023-04-29T18:55:24;13.60;99.90
7212;DHT22;3647;48.792;9.802;2023-04-29T18:57:51;13.60;99.90
7212;DHT22;3647;48.792;9.802;2023-04-29T19:00:19;13.50;99.90
7212;DHT22;3647;48.792;9.802;2023-04-29T19:02:46;13.50;99.90
7212;DHT22;3647;48.792;9.802;2023-04-29T19:05:14;13.50;99.90
7212;DHT22;3647;48.792;9.802;2023-04-29T19:07:41;13.90;99.90
7212;DHT22;3647;48.792;9.802;2023-04-29T19:10:08;13.40;99.90
7212;DHT22;3647;48.792;9.802;2023-04-29T19:12:36;13.40;99.90
7212;DHT22;3647;48.792;9.802;2023-04-29T19:15:03;13.40;99.90
7212;DHT22;3647;48.792;9.802;2023-04-29T19:17:31;13.40;99.90
7212;DHT22;3647;48.792;9.802;2023-04-29T19:19:58;13.30;99.90
7212;DHT22;3647;48.792;9.802;2023-04-29T19:22:27;13.30;99.90
7212;DHT22;3647;48.792;9.802;2023-04-29T19:24:54;13.30;99.90
7212;DHT22;3647;48.792;9.802;2023-04-29T19:27:21;13.20;99.90
7212;DHT22;3647;48.792;9.802;2023-04-29T19:29:48;13.20;99.90
7212;DHT22;3647;48.792;9.802;2023-04-29T19:32:15;13.20;99.90
7212;DHT22;3647;48.792;9.802;2023-04-29T19:34:44;13.10;99.90
7212;DHT22;3647;48.792;9.802;2023-04-29T19:37:11;13.10;99.90
7212;DHT22;3647;48.792;9.802;2023-04-29T19:39:39;13.00;99.90
7212;DHT22;3647;48.792;9.802;2023-04-29T19:42:06;13.10;99.90
7212;DHT22;3647;48.792;9.802;2023-04-29T19:44:33;13.00;99.90
7212;DHT22;3647;48.792;9.802;2023-04-29T19:47:00;13.00;99.90
7212;DHT22;3647;48.792;9.802;2023-04-29T19:49:27;12.90;99.90
7212;DHT22;3647;48.792;9.802;2023-04-29T19:51:54;12.90;99.90
7212;DHT22;3647;48.792;9.802;2023-04-29T19:54:21;12.90;99.90
7212;DHT22;3647;48.792;9.802;2023-04-29T19:56:49;15.20;99.90
7212;DHT22;3647;48.792;9.802;2023-04-29T19:59:16;12.80;99.90
7212;DHT22;3647;48.792;9.802;2023-04-29T20:01:43;12.70;99.90
7212;DHT22;3647;48.792;9.802;2023-04-29T20:04:10;12.70;99.90
7212;DHT22;3647;48.792;9.802;2023-04-29T20:06:36;12.70;99.90
7212;DHT22;3647;48.792;9.802;2023-04-29T20:09:03;12.70;99.90
7212;DHT22;3647;48.792;9.802;2023-04-29T20:11:30;13.30;99.90
7212;DHT22;3647;48.792;9.802;2023-04-29T20:13:58;12.70;99.90
7212;DHT22;3647;48.792;9.802;2023-04-29T20:16:25;12.70;99.90
7212;DHT22;3647;48.792;9.802;2023-04-29T20:18:55;12.70;99.90
7212;DHT22;3647;48.792;9.802;2023-04-29T20:21:22;12.60;99.90
7212;DHT22;3647;48.792;9.802;2023-04-29T20:23:49;12.60;99.90
7212;DHT22;3647;48.792;9.802;2023-04-29T20:26:15;12.60;99.90
7212;DHT22;3647;48.792;9.802;2023-04-29T20:28:42;12.70;99.90
7212;DHT22;3647;48.792;9.802;2023-04-29T20:31:10;12.70;99.90
7212;DHT22;3647;48.792;9.802;2023-04-29T20:33:37;12.70;99.90
7212;DHT22;3647;48.792;9.802;2023-04-29T20:36:04;12.70;99.90
7212;DHT22;3647;48.792;9.802;2023-04-29T20:38:32;12.70;99.90
7212;DHT22;3647;48.792;9.802;2023-04-29T20:41:00;12.70;99.90
7212;DHT22;3647;48.792;9.802;2023-04-29T20:43:27;12.70;99.90
7212;DHT22;3647;48.792;9.802;2023-04-29T20:45:54;12.60;99.90
7212;DHT22;3647;48.792;9.802;2023-04-29T20:48:24;12.70;99.90
7212;DHT22;3647;48.792;9.802;2023-04-29T20:50:51;12.70;99.90
7212;DHT22;3647;48.792;9.802;2023-04-29T20:53:18;12.50;99.90
7212;DHT22;3647;48.792;9.802;2023-04-29T20:55:45;12.60;99.90
7212;DHT22;3647;48.792;9.802;2023-04-29T20:58:12;12.60;99.90
7212;DHT22;3647;48.792;9.802;2023-04-29T21:00:40;12.60;99.90
7212;DHT22;3647;48.792;9.802;2023-04-29T21:03:07;12.50;99.90
7212;DHT22;3647;48.792;9.802;2023-04-29T21:05:36;12.50;99.90
7212;DHT22;3647;48.792;9.802;2023-04-29T21:08:03;12.50;99.90
7212;DHT22;3647;48.792;9.802;2023-04-29T21:10:30;12.50;99.90
7212;DHT22;3647;48.792;9.802;2023-04-29T21:12:57;12.40;99.90
7212;DHT22;3647;48.792;9.802;2023-04-29T21:15:24;12.40;99.90
7212;DHT22;3647;48.792;9.802;2023-04-29T21:17:51;12.40;99.90
7212;DHT22;3647;48.792;9.802;2023-04-29T21:20:18;12.40;99.90
